5Y2 weather

Houghton Lake State Airport
Houghton Lake Heights, Michigan, United States

Public forecast

Using degrees Fahrenheit for public forecast. Weather courtesy of forecast.io.

Closest aviation weather report (METAR) to Houghton Lake State Airport

Closest report is Roscommon County - Blodgett Memorial Airport, 5.5 nm (10.2 km) ENE. Retrieved 2019/10/14 10:53 UTC (55 minutes ago):

KHTL 141053Z AUTO 25008KT 10SM CLR 03/01 A2988 RMK AO2 SLP130 T00330011

Closest aviation forecast (TAF) to Houghton Lake State Airport

Closest forecast is Cherry Capital Airport, 41.9 nm (77.6 km) NW. Retrieved 2019/10/14 06:24 UTC (5 hours ago):

TAF KTVC 140521Z 1406/1506 23009KT P6SM VCSH SCT035 FM140700 25008KT P6SM VCSH BKN035 FM141800 26010KT P6SM BKN050 FM142200 24009KT P6SM BKN090 FM150200 21006KT P6SM SCT080